Time;durP1;ratioP1;P1;durP2;ratioP2;P2;SDS_P1;SDS_P2;PMS_P1;PMS_P2;Temp;Humidity;BMP_temperature;BMP_pressure;BME280_temperature;BME280_humidity;BME280_pressure;Samples;Min_cycle;Max_cycle;Signal;HPM_P1;HPM_P2
2024/02/21 00:02:12;;;;;;;16.98;4.22;;;9.80;99.90;;;;;;5057120;28;20056;-74
2024/02/21 00:04:38;;;;;;;15.68;4.13;;;9.80;99.90;;;;;;5057419;28;20445;-73
2024/02/21 00:07:04;;;;;;;13.50;3.58;;;9.80;99.90;;;;;;5044979;28;20076;-74
2024/02/21 00:09:30;;;;;;;9.88;3.80;;;9.80;99.90;;;;;;5049396;28;20045;-74
2024/02/21 00:12:00;;;;;;;13.93;4.13;;;9.80;99.90;;;;;;5060443;28;20283;-74
2024/02/21 00:14:26;;;;;;;;;;;9.70;99.90;;;;;;5047120;28;20081;-74
2024/02/21 00:16:52;;;;;;;13.93;4.40;;;9.70;99.90;;;;;;5044998;28;19976;-74
2024/02/21 00:19:18;;;;;;;18.88;4.57;;;9.70;99.90;;;;;;5065652;28;20044;-74
2024/02/21 00:21:43;;;;;;;17.30;4.32;;;9.70;99.90;;;;;;5050204;28;20071;-74
2024/02/21 00:24:09;;;;;;;14.02;3.58;;;9.70;99.90;;;;;;5069123;28;20054;-73
2024/02/21 00:26:35;;;;;;;16.67;4.45;;;9.70;99.90;;;;;;5046108;28;20048;-77
2024/02/21 00:29:00;;;;;;;15.98;4.70;;;9.80;99.90;;;;;;5044283;28;20040;-73
2024/02/21 00:31:29;;;;;;;16.27;4.70;;;9.70;99.90;;;;;;5059589;28;20408;-74
2024/02/21 00:33:55;;;;;;;16.02;4.30;;;9.70;99.90;;;;;;5066733;28;20048;-74
2024/02/21 00:36:20;;;;;;;14.65;3.95;;;9.70;99.90;;;;;;5054891;28;20510;-74
2024/02/21 00:38:46;;;;;;;17.05;4.55;;;9.70;99.90;;;;;;5042169;28;20127;-74
2024/02/21 00:41:12;;;;;;;16.83;4.57;;;9.70;99.90;;;;;;5035203;28;20048;-74
2024/02/21 00:43:37;;;;;;;14.38;4.50;;;9.70;99.90;;;;;;5047003;28;20474;-74
2024/02/21 00:46:06;;;;;;;16.45;4.28;;;9.70;99.90;;;;;;5041804;28;20055;-73
2024/02/21 00:48:32;;;;;;;15.48;4.55;;;9.70;99.90;;;;;;5068404;28;20047;-73
2024/02/21 00:50:58;;;;;;;18.15;4.47;;;9.70;99.90;;;;;;5054621;28;20036;-73
2024/02/21 00:53:23;;;;;;;19.80;4.47;;;9.70;99.90;;;;;;5057285;28;20476;-73
2024/02/21 00:55:49;;;;;;;19.50;5.57;;;9.70;99.90;;;;;;5065372;28;20044;-72
2024/02/21 00:58:15;;;;;;;19.35;6.05;;;9.70;99.90;;;;;;5058185;28;20044;-73
2024/02/21 01:00:41;;;;;;;17.17;5.15;;;9.70;99.90;;;;;;5039585;28;20078;-74
2024/02/21 01:03:06;;;;;;;16.15;4.88;;;9.60;99.90;;;;;;5059173;28;20541;-74
2024/02/21 01:05:32;;;;;;;17.15;5.43;;;9.60;99.90;;;;;;5045023;28;20496;-75
2024/02/21 01:07:58;;;;;;;17.20;4.93;;;9.60;99.90;;;;;;5035376;28;20063;-73
2024/02/21 01:10:24;;;;;;;16.40;5.78;;;9.60;99.90;;;;;;5053011;28;20032;-73
2024/02/21 01:12:50;;;;;;;21.02;6.55;;;9.50;99.90;;;;;;5056959;28;20085;-74
2024/02/21 01:15:15;;;;;;;17.52;6.90;;;9.50;99.90;;;;;;5057028;28;20074;-74
2024/02/21 01:17:42;;;;;;;19.30;7.25;;;9.50;99.90;;;;;;5053988;28;20557;-73
2024/02/21 01:20:08;;;;;;;23.13;8.23;;;9.40;99.90;;;;;;5046778;28;20047;-73
2024/02/21 01:22:34;;;;;;;22.10;7.47;;;9.40;99.90;;;;;;5056660;28;20050;-74
2024/02/21 01:24:59;;;;;;;21.92;8.38;;;9.40;99.90;;;;;;5049345;28;20048;-75
2024/02/21 01:27:25;;;;;;;28.02;9.93;;;9.40;99.90;;;;;;5074869;28;20040;-74
2024/02/21 01:29:51;;;;;;;26.40;11.15;;;9.40;99.90;;;;;;5065993;28;20135;-75
2024/02/21 01:32:17;;;;;;;26.35;13.45;;;9.30;99.90;;;;;;5041216;28;20051;-73
2024/02/21 01:34:43;;;;;;;24.10;13.50;;;9.40;99.90;;;;;;5052873;28;20955;-73
2024/02/21 01:37:09;;;;;;;28.30;12.43;;;9.40;99.90;;;;;;5055320;28;20504;-73
2024/02/21 01:39:35;;;;;;;27.25;14.10;;;9.40;99.90;;;;;;5063041;28;20048;-74
2024/02/21 01:42:01;;;;;;;26.88;13.63;;;9.30;99.90;;;;;;5038390;28;20114;-73
2024/02/21 01:44:27;;;;;;;29.67;13.40;;;9.40;99.90;;;;;;5060411;28;20146;-74
2024/02/21 01:46:53;;;;;;;26.85;13.30;;;9.30;99.90;;;;;;5049521;28;20060;-73
2024/02/21 01:49:20;;;;;;;28.90;13.77;;;9.30;99.90;;;;;;5068672;28;20055;-73
2024/02/21 01:51:46;;;;;;;27.30;13.48;;;9.30;99.90;;;;;;5051179;28;20065;-74
2024/02/21 01:54:15;;;;;;;26.58;13.13;;;9.30;99.90;;;;;;5030632;28;20041;-73
2024/02/21 01:56:42;;;;;;;28.92;14.43;;;9.30;99.90;;;;;;5034583;28;20041;-73
2024/02/21 01:59:09;;;;;;;21.98;13.25;;;9.20;99.90;;;;;;5044590;28;20047;-74
2024/02/21 02:01:35;;;;;;;30.58;13.95;;;9.20;99.90;;;;;;5058092;28;20522;-74
2024/02/21 02:04:01;;;;;;;32.75;14.45;;;9.20;99.90;;;;;;5063672;28;20043;-73
2024/02/21 02:06:27;;;;;;;26.85;13.65;;;9.20;99.90;;;;;;5043122;28;20040;-74
2024/02/21 02:08:54;;;;;;;36.28;15.73;;;9.20;99.90;;;;;;5060110;28;20252;-74
2024/02/21 02:11:20;;;;;;;31.42;14.40;;;9.20;99.90;;;;;;5062681;28;20143;-74
2024/02/21 02:13:46;;;;;;;29.70;14.13;;;9.10;99.90;;;;;;5057263;28;20135;-74
2024/02/21 02:16:11;;;;;;;28.33;14.48;;;9.10;99.90;;;;;;5052364;28;20044;-73
2024/02/21 02:18:37;;;;;;;32.75;16.10;;;9.10;99.90;;;;;;5062509;28;20047;-74
2024/02/21 02:21:08;;;;;;;35.65;15.48;;;9.10;99.90;;;;;;5063177;28;20143;-74
2024/02/21 02:23:35;;;;;;;32.75;14.98;;;9.10;99.90;;;;;;5063522;28;20040;-74
2024/02/21 02:26:07;;;;;;;30.00;16.20;;;9.10;99.90;;;;;;5072306;28;20403;-74
2024/02/21 02:28:33;;;;;;;35.90;16.42;;;9.00;99.90;;;;;;5072447;28;20048;-73
2024/02/21 02:30:59;;;;;;;37.63;15.90;;;9.00;99.90;;;;;;5061720;28;20087;-73
2024/02/21 02:33:25;;;;;;;36.65;15.10;;;9.00;99.90;;;;;;5046490;28;20527;-74
2024/02/21 02:35:53;;;;;;;35.65;15.95;;;9.00;99.90;;;;;;5071110;28;20514;-74
2024/02/21 02:38:19;;;;;;;30.15;13.32;;;9.00;99.90;;;;;;5047842;28;20052;-74
2024/02/21 02:40:44;;;;;;;33.08;14.40;;;9.00;99.90;;;;;;5067585;28;20408;-74
2024/02/21 02:43:10;;;;;;;34.25;14.15;;;9.00;99.90;;;;;;5072079;28;20047;-74
2024/02/21 02:45:36;;;;;;;35.70;13.20;;;9.00;99.90;;;;;;5053704;28;20283;-74
2024/02/21 02:48:02;;;;;;;30.92;12.90;;;9.00;99.90;;;;;;5062964;28;20036;-75
2024/02/21 02:50:28;;;;;;;24.63;11.98;;;8.90;99.90;;;;;;5066560;28;20325;-74
2024/02/21 02:52:55;;;;;;;28.58;12.82;;;8.90;99.90;;;;;;5051402;28;20048;-74
2024/02/21 02:55:20;;;;;;;32.85;13.20;;;9.00;99.90;;;;;;5066984;28;20443;-75
2024/02/21 02:57:46;;;;;;;27.70;13.00;;;8.90;99.90;;;;;;5073547;28;20389;-74
2024/02/21 03:00:14;;;;;;;28.35;12.77;;;9.00;99.90;;;;;;5063649;28;20041;-74
2024/02/21 03:02:41;;;;;;;35.47;12.68;;;8.90;99.90;;;;;;5055429;28;20119;-75
2024/02/21 03:05:16;;;;;;;29.33;12.27;;;8.90;99.90;;;;;;5053857;28;20044;-75
2024/02/21 03:07:42;;;;;;;33.72;13.38;;;9.00;99.90;;;;;;5035672;28;20090;-74
2024/02/21 03:10:09;;;;;;;26.42;12.13;;;8.90;99.90;;;;;;5053650;28;20048;-74
2024/02/21 03:12:35;;;;;;;31.13;12.52;;;8.90;99.90;;;;;;5048532;28;20547;-74
2024/02/21 03:15:01;;;;;;;33.83;13.50;;;8.90;99.90;;;;;;5038645;28;20044;-75
2024/02/21 03:17:29;;;;;;;30.77;13.45;;;8.90;99.90;;;;;;5035193;28;20069;-74
2024/02/21 03:19:59;;;;;;;29.70;12.38;;;9.00;99.90;;;;;;5053773;28;20040;-74
2024/02/21 03:22:25;;;;;;;29.60;12.98;;;9.00;99.90;;;;;;5053679;28;20044;-74
2024/02/21 03:24:51;;;;;;;29.02;12.90;;;8.90;99.90;;;;;;5062842;28;20552;-74
2024/02/21 03:27:17;;;;;;;29.80;14.27;;;8.90;99.90;;;;;;5052493;28;20078;-74
2024/02/21 03:29:43;;;;;;;33.40;14.15;;;9.00;99.90;;;;;;5044691;28;20041;-75
2024/02/21 03:32:09;;;;;;;41.03;14.82;;;9.00;99.90;;;;;;5061780;28;20455;-74
2024/02/21 03:34:35;;;;;;;34.22;14.15;;;8.90;99.90;;;;;;5057692;28;20048;-74
2024/02/21 03:37:01;;;;;;;35.63;13.68;;;8.90;99.90;;;;;;5057333;28;20044;-73
2024/02/21 03:39:27;;;;;;;30.38;13.55;;;8.90;99.90;;;;;;5060511;28;20106;-74
2024/02/21 03:41:53;;;;;;;31.70;12.88;;;8.90;99.90;;;;;;5044099;28;20048;-74
2024/02/21 03:44:19;;;;;;;42.75;13.63;;;8.90;99.90;;;;;;5060754;28;20115;-74
2024/02/21 03:46:44;;;;;;;33.70;14.13;;;8.90;99.90;;;;;;5055297;28;20147;-73
2024/02/21 03:49:11;;;;;;;32.47;14.70;;;8.90;99.90;;;;;;5046427;28;20036;-74
2024/02/21 03:51:37;;;;;;;29.90;13.85;;;8.90;99.90;;;;;;5060624;28;20451;-74
2024/02/21 03:54:03;;;;;;;32.30;15.70;;;9.00;99.90;;;;;;5045714;28;20056;-74
2024/02/21 03:56:28;;;;;;;33.15;14.80;;;8.90;99.90;;;;;;5063458;28;20407;-73
2024/02/21 03:58:55;;;;;;;30.45;15.45;;;8.90;99.90;;;;;;5051142;28;20070;-74
2024/02/21 04:01:21;;;;;;;31.38;14.60;;;8.90;99.90;;;;;;5055624;28;20357;-74
2024/02/21 04:03:46;;;;;;;32.28;15.32;;;8.90;99.90;;;;;;5054976;28;20058;-74
2024/02/21 04:06:12;;;;;;;33.95;15.57;;;8.90;99.90;;;;;;5062214;28;20040;-74
2024/02/21 04:08:39;;;;;;;41.95;16.70;;;8.90;99.90;;;;;;5056634;28;20047;-74
2024/02/21 04:11:05;;;;;;;37.85;15.63;;;8.90;99.90;;;;;;5071439;28;20040;-74
2024/02/21 04:13:30;;;;;;;37.13;16.40;;;8.90;99.90;;;;;;5063610;28;20131;-74
2024/02/21 04:15:56;;;;;;;39.90;16.58;;;8.90;99.90;;;;;;5047594;28;20082;-74
2024/02/21 04:18:22;;;;;;;35.28;16.38;;;8.90;99.90;;;;;;5046040;28;20483;-74
2024/02/21 04:20:50;;;;;;;34.53;17.55;;;8.90;99.90;;;;;;5059584;28;20122;-74
2024/02/21 04:23:16;;;;;;;36.15;18.00;;;8.90;99.90;;;;;;5048407;28;20082;-74
2024/02/21 04:25:41;;;;;;;44.63;17.88;;;8.90;99.90;;;;;;5070801;28;20067;-74
2024/02/21 04:28:07;;;;;;;37.58;18.15;;;8.90;99.90;;;;;;5064412;28;20093;-74
2024/02/21 04:30:33;;;;;;;42.42;19.02;;;8.90;99.90;;;;;;5051676;28;20123;-75
2024/02/21 04:32:59;;;;;;;40.33;18.85;;;8.90;99.90;;;;;;5048071;28;20472;-74
2024/02/21 04:35:24;;;;;;;41.45;18.35;;;8.90;99.90;;;;;;5063107;28;20036;-74
2024/02/21 04:37:50;;;;;;;45.20;19.58;;;8.90;99.90;;;;;;5065134;28;20131;-75
2024/02/21 04:40:16;;;;;;;39.00;18.67;;;8.90;99.90;;;;;;5050791;28;20036;-75
2024/02/21 04:42:42;;;;;;;45.67;18.70;;;8.90;99.90;;;;;;5063970;28;20040;-75
2024/02/21 04:45:09;;;;;;;44.55;19.40;;;8.90;99.90;;;;;;5075073;28;20043;-75
2024/02/21 04:47:34;;;;;;;56.30;21.15;;;8.90;99.90;;;;;;5065466;28;21641;-75
2024/02/21 04:50:00;;;;;;;44.10;20.17;;;8.90;99.90;;;;;;5072369;28;20035;-75
2024/02/21 04:52:26;;;;;;;47.38;19.27;;;8.90;99.90;;;;;;5062225;28;20040;-75
2024/02/21 04:54:52;;;;;;;50.88;20.08;;;8.90;99.90;;;;;;5062140;28;20392;-74
2024/02/21 04:57:17;;;;;;;44.15;19.65;;;8.90;99.90;;;;;;5043549;28;20048;-74
2024/02/21 04:59:47;;;;;;;49.30;18.85;;;8.90;99.90;;;;;;5069822;28;20051;-75
2024/02/21 05:02:13;;;;;;;45.30;20.13;;;8.90;99.90;;;;;;5057173;28;20052;-73
2024/02/21 05:04:44;;;;;;;56.97;19.13;;;8.90;99.90;;;;;;5051723;28;20036;-74
2024/02/21 05:07:11;;;;;;;46.72;18.70;;;8.80;99.90;;;;;;5046880;28;20523;-73
2024/02/21 05:09:37;;;;;;;51.20;19.13;;;8.90;99.90;;;;;;5059274;28;20497;-74
2024/02/21 05:12:03;;;;;;;48.78;18.73;;;8.90;99.90;;;;;;5062533;28;20059;-74
2024/02/21 05:14:29;;;;;;;45.40;16.42;;;8.90;99.90;;;;;;5045791;28;20512;-73
2024/02/21 05:16:55;;;;;;;47.00;17.52;;;8.90;99.90;;;;;;5050050;28;20074;-74
2024/02/21 05:19:21;;;;;;;49.53;19.58;;;8.90;99.90;;;;;;5051473;28;20048;-73
2024/02/21 05:21:46;;;;;;;41.53;17.58;;;8.90;99.90;;;;;;5048171;28;20725;-73
2024/02/21 05:24:12;;;;;;;46.47;18.25;;;8.90;99.90;;;;;;5052993;28;20055;-74
2024/02/21 05:26:38;;;;;;;47.45;17.05;;;8.90;99.90;;;;;;5051653;28;20061;-74
2024/02/21 05:29:04;;;;;;;48.42;16.92;;;8.90;99.90;;;;;;5062994;28;20040;-74
2024/02/21 05:31:52;;;;;;;45.63;16.08;;;8.90;99.90;;;;;;5041257;28;20389;-74
2024/02/21 05:34:19;;;;;;;50.15;15.57;;;9.00;99.90;;;;;;5039026;28;20046;-74
2024/02/21 05:36:45;;;;;;;42.63;15.23;;;8.90;99.90;;;;;;5047529;28;20044;-73
2024/02/21 05:39:12;;;;;;;49.45;15.40;;;8.90;99.90;;;;;;5051996;28;20045;-74
2024/02/21 05:41:37;;;;;;;39.28;15.10;;;8.90;99.90;;;;;;5041896;28;20037;-74
2024/02/21 05:44:03;;;;;;;49.92;14.95;;;8.90;99.90;;;;;;5058278;28;20523;-73
2024/02/21 05:46:29;;;;;;;40.90;15.20;;;8.90;99.90;;;;;;5048800;28;20051;-73
2024/02/21 05:48:55;;;;;;;38.17;13.18;;;8.90;99.90;;;;;;5053607;28;20127;-74
2024/02/21 05:51:21;;;;;;;41.97;13.48;;;8.90;99.90;;;;;;5054243;28;20496;-74
2024/02/21 05:53:46;;;;;;;44.00;14.93;;;8.90;99.90;;;;;;5054875;28;20036;-76
2024/02/21 05:56:13;;;;;;;35.88;13.77;;;8.90;99.90;;;;;;5031991;28;20044;-74
2024/02/21 05:58:40;;;;;;;47.00;16.20;;;8.90;99.90;;;;;;5050355;28;20051;-74
2024/02/21 06:01:09;;;;;;;44.90;18.63;;;8.90;99.90;;;;;;5054098;28;20101;-74
2024/02/21 06:03:36;;;;;;;43.50;17.42;;;8.90;99.90;;;;;;5075277;28;20041;-74
2024/02/21 06:06:02;;;;;;;44.03;16.95;;;8.90;99.90;;;;;;5046203;28;20059;-74
2024/02/21 06:08:28;;;;;;;44.88;17.58;;;8.90;99.90;;;;;;5057727;28;20120;-74
2024/02/21 06:10:54;;;;;;;39.20;16.17;;;8.90;99.90;;;;;;5055950;28;20143;-74
2024/02/21 06:13:26;;;;;;;43.13;17.00;;;8.90;99.90;;;;;;5049228;28;20068;-74
2024/02/21 06:15:52;;;;;;;44.30;15.40;;;8.90;99.90;;;;;;5053188;28;20059;-74
2024/02/21 06:18:19;;;;;;;49.78;15.57;;;9.00;99.90;;;;;;5046822;28;20123;-74
2024/02/21 06:20:46;;;;;;;42.95;15.52;;;9.00;99.90;;;;;;5060259;28;20109;-74
2024/02/21 06:23:12;;;;;;;43.33;14.38;;;9.00;99.90;;;;;;5060517;28;20056;-74
2024/02/21 06:25:38;;;;;;;44.47;14.10;;;8.90;99.90;;;;;;5062196;28;20100;-74
2024/02/21 06:28:05;;;;;;;35.35;13.63;;;8.90;99.90;;;;;;5068815;28;20040;-74
2024/02/21 06:30:31;;;;;;;39.92;14.40;;;8.90;99.90;;;;;;5071626;28;20082;-74
2024/02/21 06:32:57;;;;;;;45.78;14.40;;;8.90;99.90;;;;;;5071737;28;20428;-75
2024/02/21 06:35:26;;;;;;;37.65;14.57;;;9.00;99.90;;;;;;5055932;28;20062;-74
2024/02/21 06:37:52;;;;;;;38.47;13.75;;;8.90;99.90;;;;;;5075381;28;20203;-74
2024/02/21 06:40:22;;;;;;;39.45;15.43;;;8.90;99.90;;;;;;5071586;28;20079;-73
2024/02/21 06:42:48;;;;;;;34.75;15.65;;;9.00;99.90;;;;;;5069694;28;20580;-74
2024/02/21 06:45:14;;;;;;;38.50;17.00;;;8.90;99.90;;;;;;5078741;28;20032;-73
2024/02/21 06:47:40;;;;;;;38.67;17.63;;;9.00;99.90;;;;;;5067039;28;20117;-74
2024/02/21 06:50:06;;;;;;;43.33;16.70;;;8.90;99.90;;;;;;5070634;28;20532;-74
2024/02/21 06:52:32;;;;;;;35.47;16.83;;;8.90;99.90;;;;;;5061185;28;20043;-73
2024/02/21 06:54:58;;;;;;;35.58;17.10;;;8.90;99.90;;;;;;5063481;28;20052;-74
2024/02/21 06:57:23;;;;;;;34.75;16.60;;;8.90;99.90;;;;;;5057661;28;20046;-74
2024/02/21 06:59:49;;;;;;;43.63;19.00;;;8.90;99.90;;;;;;5075423;28;20040;-73
2024/02/21 07:02:15;;;;;;;38.65;17.08;;;8.90;99.90;;;;;;5067839;28;20079;-74
2024/02/21 07:04:41;;;;;;;35.78;16.85;;;8.90;99.90;;;;;;5045118;28;20075;-74
2024/02/21 07:07:07;;;;;;;44.42;18.38;;;8.90;99.90;;;;;;5044756;28;20086;-74
2024/02/21 07:09:32;;;;;;;33.38;16.75;;;8.90;99.90;;;;;;5041565;28;20524;-75
2024/02/21 07:11:59;;;;;;;37.65;17.60;;;9.00;99.90;;;;;;5056691;28;20430;-74
2024/02/21 07:14:25;;;;;;;34.97;16.75;;;8.90;99.90;;;;;;5054653;28;20589;-75
2024/02/21 07:16:51;;;;;;;34.60;15.98;;;8.90;99.90;;;;;;5059414;28;20047;-74
2024/02/21 07:19:17;;;;;;;31.52;15.60;;;8.90;99.90;;;;;;5057654;28;20052;-74
2024/02/21 07:21:43;;;;;;;34.22;15.88;;;8.90;99.90;;;;;;5059887;28;20040;-74
2024/02/21 07:24:09;;;;;;;37.15;15.98;;;8.90;99.90;;;;;;5066179;28;20126;-74
2024/02/21 07:26:35;;;;;;;34.95;16.73;;;8.90;99.90;;;;;;5048668;28;20044;-74
2024/02/21 07:29:00;;;;;;;37.92;17.55;;;8.90;99.90;;;;;;5054412;28;20526;-74
2024/02/21 07:31:26;;;;;;;34.85;18.20;;;8.90;99.90;;;;;;5044056;28;20044;-74
2024/02/21 07:33:55;;;;;;;33.35;18.38;;;8.90;99.90;;;;;;5055717;28;20123;-74
2024/02/21 07:36:30;;;;;;;29.90;19.40;;;8.90;99.90;;;;;;5043536;28;20116;-73
2024/02/21 07:38:56;;;;;;;34.42;20.75;;;8.90;99.90;;;;;;5048173;28;20044;-73
2024/02/21 07:41:22;;;;;;;38.97;21.33;;;8.90;99.90;;;;;;5045803;28;20093;-74
2024/02/21 07:43:48;;;;;;;41.20;22.85;;;8.90;99.90;;;;;;5056635;28;20044;-74
2024/02/21 07:46:14;;;;;;;35.78;22.30;;;8.90;99.90;;;;;;5053134;28;20040;-74
2024/02/21 07:48:40;;;;;;;35.88;22.55;;;8.90;99.90;;;;;;5061326;28;21428;-74
2024/02/21 07:51:06;;;;;;;35.10;22.67;;;8.90;99.90;;;;;;5053091;28;20110;-73
2024/02/21 07:53:32;;;;;;;32.47;22.55;;;8.90;99.90;;;;;;5050775;28;20036;-74
2024/02/21 07:55:57;;;;;;;36.75;22.83;;;9.00;99.90;;;;;;5042882;28;20090;-74
2024/02/21 07:58:23;;;;;;;36.65;23.27;;;8.90;99.90;;;;;;5055488;28;20044;-74
2024/02/21 08:00:52;;;;;;;41.10;23.70;;;8.90;99.90;;;;;;5048204;28;20087;-74
2024/02/21 08:03:18;;;;;;;33.33;23.60;;;8.90;99.90;;;;;;5044077;28;20305;-74
2024/02/21 08:05:44;;;;;;;37.72;24.02;;;8.90;99.90;;;;;;5063853;28;20119;-73
2024/02/21 08:08:10;;;;;;;32.17;22.70;;;8.90;99.90;;;;;;5053751;28;20059;-73
2024/02/21 08:10:36;;;;;;;31.77;23.58;;;8.90;99.90;;;;;;5038713;28;20037;-74
2024/02/21 08:13:02;;;;;;;38.15;24.52;;;8.90;99.90;;;;;;5056533;28;20089;-74
2024/02/21 08:15:29;;;;;;;35.25;22.55;;;8.90;99.90;;;;;;5052235;28;20123;-74
2024/02/21 08:18:01;;;;;;;32.67;23.02;;;8.90;99.90;;;;;;5040828;28;20072;-74
2024/02/21 08:20:27;;;;;;;35.47;23.85;;;8.90;99.90;;;;;;5047044;28;20084;-74
2024/02/21 08:22:53;;;;;;;39.08;23.92;;;8.90;99.90;;;;;;5043126;28;20044;-75
2024/02/21 08:25:18;;;;;;;30.50;21.88;;;8.90;99.90;;;;;;5039521;28;20041;-74
2024/02/21 08:27:45;;;;;;;28.70;22.58;;;8.90;99.90;;;;;;5055193;28;20040;-74
2024/02/21 08:30:11;;;;;;;31.58;23.38;;;9.00;99.90;;;;;;5038455;28;20040;-75
2024/02/21 08:32:37;;;;;;;31.80;22.10;;;9.00;99.90;;;;;;5051301;28;20044;-74
2024/02/21 08:35:05;;;;;;;32.35;22.75;;;8.90;99.90;;;;;;5043203;28;20067;-74
2024/02/21 08:37:31;;;;;;;30.80;22.55;;;9.00;99.90;;;;;;5055205;28;20071;-74
2024/02/21 08:39:57;;;;;;;32.80;22.58;;;9.00;99.90;;;;;;5042825;28;20519;-74
2024/02/21 08:42:23;;;;;;;29.35;22.45;;;9.00;99.90;;;;;;5060223;28;20048;-74
2024/02/21 08:44:49;;;;;;;33.63;22.55;;;9.00;99.90;;;;;;5047636;28;20040;-74
2024/02/21 08:47:15;;;;;;;33.88;23.83;;;9.00;99.90;;;;;;5046981;28;20028;-74
2024/02/21 08:49:41;;;;;;;29.65;23.25;;;9.00;99.90;;;;;;5038623;28;20335;-74
2024/02/21 08:52:06;;;;;;;32.47;24.67;;;9.00;99.90;;;;;;5046685;28;20047;-74
2024/02/21 08:54:33;;;;;;;33.20;25.88;;;9.10;99.90;;;;;;5046554;28;20526;-74
2024/02/21 08:56:59;;;;;;;33.35;24.17;;;9.00;99.90;;;;;;5038937;28;20490;-74
2024/02/21 08:59:28;;;;;;;30.58;25.80;;;9.00;99.90;;;;;;5044100;28;20096;-74
2024/02/21 09:01:54;;;;;;;32.58;25.73;;;9.10;99.90;;;;;;5049354;28;20040;-74
2024/02/21 09:04:19;;;;;;;32.20;25.42;;;9.00;99.90;;;;;;5051051;28;20117;-75
2024/02/21 09:06:46;;;;;;;31.73;26.25;;;9.00;99.90;;;;;;5056583;28;20042;-74
2024/02/21 09:09:12;;;;;;;30.98;27.30;;;9.00;99.90;;;;;;5044203;28;20051;-74
2024/02/21 09:11:39;;;;;;;33.95;26.83;;;9.00;99.90;;;;;;5055182;28;20816;-74
2024/02/21 09:14:07;;;;;;;33.42;27.25;;;9.00;99.90;;;;;;5057450;28;20472;-75
2024/02/21 09:16:33;;;;;;;35.08;27.58;;;9.00;99.90;;;;;;5045650;28;20417;-75
2024/02/21 09:19:00;;;;;;;35.78;28.45;;;8.90;99.90;;;;;;5054812;28;20044;-74
2024/02/21 09:21:26;;;;;;;35.75;28.00;;;9.00;99.90;;;;;;5059610;28;20040;-74
2024/02/21 09:23:51;;;;;;;33.63;27.58;;;8.90;99.90;;;;;;5050297;28;20708;-74
2024/02/21 09:26:17;;;;;;;35.38;28.75;;;9.00;99.90;;;;;;5070872;28;20044;-75
2024/02/21 09:28:46;;;;;;;32.35;27.58;;;9.00;99.90;;;;;;5059378;28;20404;-74
2024/02/21 09:31:12;;;;;;;32.95;27.95;;;9.00;99.90;;;;;;5056938;28;20040;-74
2024/02/21 09:33:39;;;;;;;31.08;27.58;;;8.90;99.90;;;;;;5041523;28;20130;-74
2024/02/21 09:36:05;;;;;;;31.33;27.17;;;9.00;99.90;;;;;;5048605;28;20044;-75
2024/02/21 09:38:31;;;;;;;33.50;28.42;;;9.00;99.90;;;;;;5050781;28;20051;-74
2024/02/21 09:41:06;;;;;;;34.00;26.42;;;9.00;99.90;;;;;;5051800;28;20041;-74
2024/02/21 09:43:34;;;;;;;32.65;28.00;;;9.00;99.90;;;;;;5043161;28;20048;-74
2024/02/21 09:46:01;;;;;;;34.08;27.60;;;9.10;99.90;;;;;;5054653;28;20052;-75
2024/02/21 09:48:34;;;;;;;34.53;28.52;;;9.10;99.90;;;;;;5066469;28;20044;-74
2024/02/21 09:51:02;;;;;;;34.92;29.77;;;9.10;99.90;;;;;;5055449;28;20446;-74
2024/02/21 09:53:33;;;;;;;31.85;28.45;;;9.20;99.90;;;;;;5053388;28;20053;-74
2024/02/21 09:55:59;;;;;;;32.65;27.70;;;9.20;99.90;;;;;;5057168;28;20043;-74
2024/02/21 09:58:27;;;;;;;35.00;27.75;;;9.20;99.90;;;;;;5044856;28;20048;-74
2024/02/21 10:00:53;;;;;;;31.63;28.05;;;9.20;99.90;;;;;;5060109;28;20052;-74
2024/02/21 10:03:22;;;;;;;34.47;28.50;;;9.30;99.90;;;;;;5032428;28;20500;-74
2024/02/21 10:05:52;;;;;;;31.27;26.25;;;9.30;99.90;;;;;;5039355;28;20522;-74
2024/02/21 10:08:19;;;;;;;28.63;25.75;;;9.40;99.90;;;;;;5046451;28;20048;-74
2024/02/21 10:10:46;;;;;;;37.88;27.80;;;9.40;99.90;;;;;;5043575;28;20040;-73
2024/02/21 10:13:27;;;;;;;32.13;28.08;;;9.40;99.90;;;;;;5043568;28;20094;-74
2024/02/21 10:16:02;;;;;;;32.97;27.42;;;9.50;99.90;;;;;;5050721;28;20505;-73
2024/02/21 10:18:28;;;;;;;32.63;28.10;;;9.50;99.90;;;;;;5057027;28;20647;-73
2024/02/21 10:21:05;;;;;;;37.55;29.27;;;9.60;99.90;;;;;;5069525;28;20127;-73
2024/02/21 10:23:57;;;;;;;36.05;27.55;;;9.60;99.90;;;;;;5066855;28;20048;-74
2024/02/21 10:26:23;;;;;;;28.63;24.70;;;9.60;99.90;;;;;;5055488;28;20592;-73
2024/02/21 10:28:51;;;;;;;30.42;24.85;;;9.60;99.90;;;;;;5062676;28;20075;-74
2024/02/21 10:31:27;;;;;;;28.83;24.77;;;9.70;99.90;;;;;;5047565;28;20493;-73
2024/02/21 10:33:58;;;;;;;33.45;25.17;;;9.70;99.90;;;;;;5040903;28;20429;-73
2024/02/21 10:36:25;;;;;;;29.00;25.20;;;9.60;99.90;;;;;;5041223;28;20036;-73
2024/02/21 10:38:54;;;;;;;27.65;24.58;;;9.60;99.90;;;;;;5044562;28;20040;-73
2024/02/21 10:41:21;;;;;;;29.40;24.42;;;9.70;99.90;;;;;;5058623;28;20051;-74
2024/02/21 10:43:54;;;;;;;28.60;25.27;;;9.60;99.90;;;;;;5056705;28;20070;-74
2024/02/21 10:46:24;;;;;;;30.73;23.88;;;9.70;99.90;;;;;;5058592;28;20366;-74
2024/02/21 10:49:09;;;;;;;28.27;22.65;;;9.70;99.90;;;;;;5058469;28;20040;-74
2024/02/21 10:51:42;;;;;;;29.25;21.08;;;9.70;99.90;;;;;;5059732;28;20044;-74
2024/02/21 10:54:53;;;;;;;24.10;20.60;;;9.80;99.90;;;;;;5057981;28;20044;-73
2024/02/21 10:57:22;;;;;;;23.58;19.83;;;9.80;99.90;;;;;;5038295;28;20056;-74
2024/02/21 10:59:48;;;;;;;25.05;19.38;;;9.80;99.90;;;;;;5058805;28;20044;-74
2024/02/21 11:02:15;;;;;;;24.15;18.88;;;9.80;99.90;;;;;;5048320;28;20067;-74
2024/02/21 11:04:42;;;;;;;23.70;17.55;;;9.80;99.90;;;;;;5054223;28;20048;-74
2024/02/21 11:07:09;;;;;;;22.27;17.00;;;9.80;99.90;;;;;;5062218;28;20048;-74
2024/02/21 11:09:35;;;;;;;23.38;17.42;;;9.90;99.90;;;;;;5066412;28;20546;-74
2024/02/21 11:12:05;;;;;;;22.50;16.88;;;9.90;99.90;;;;;;5037656;28;20088;-74
2024/02/21 11:14:39;;;;;;;23.15;17.30;;;9.90;99.90;;;;;;5047953;28;20068;-74
2024/02/21 11:17:18;;;;;;;20.38;15.35;;;9.80;99.90;;;;;;5059739;28;20059;-74
2024/02/21 11:19:45;;;;;;;22.58;14.70;;;9.80;99.90;;;;;;5050443;28;20035;-74
2024/02/21 11:22:18;;;;;;;19.90;15.05;;;9.80;99.90;;;;;;5066275;28;20973;-74
2024/02/21 11:24:44;;;;;;;20.48;16.60;;;9.80;99.90;;;;;;5067503;28;20193;-74
2024/02/21 11:27:21;;;;;;;22.17;15.18;;;9.90;99.90;;;;;;5044344;28;20599;-74
2024/02/21 11:29:51;;;;;;;21.10;14.00;;;9.90;99.90;;;;;;5052213;28;20040;-73
2024/02/21 11:32:20;;;;;;;19.75;14.70;;;9.90;99.90;;;;;;5034491;28;20048;-74
2024/02/21 11:35:05;;;;;;;18.52;14.32;;;9.80;99.90;;;;;;5055674;28;20044;-74
2024/02/21 11:37:33;;;;;;;16.58;12.85;;;9.90;99.90;;;;;;5036163;28;20520;-74
2024/02/21 11:39:59;;;;;;;16.75;14.48;;;9.80;99.90;;;;;;5050062;28;20047;-74
2024/02/21 11:42:26;;;;;;;19.20;13.23;;;9.80;99.90;;;;;;5044555;28;20516;-74
2024/02/21 11:44:53;;;;;;;18.48;13.95;;;9.90;99.90;;;;;;5044377;28;20071;-73
2024/02/21 11:47:19;;;;;;;19.10;13.75;;;9.80;99.90;;;;;;5046615;28;20044;-74
2024/02/21 11:49:46;;;;;;;16.23;13.48;;;9.80;99.90;;;;;;5051758;28;20565;-73
2024/02/21 11:52:15;;;;;;;17.95;13.73;;;9.80;99.90;;;;;;5059974;28;20040;-74
2024/02/21 11:54:41;;;;;;;20.60;14.25;;;9.80;99.90;;;;;;5053105;28;20145;-73
2024/02/21 11:57:07;;;;;;;19.48;13.43;;;9.90;99.90;;;;;;5068825;28;20052;-74
2024/02/21 11:59:34;;;;;;;17.33;13.45;;;9.90;99.90;;;;;;5058912;28;20056;-74
2024/02/21 12:02:00;;;;;;;18.52;13.88;;;9.90;99.90;;;;;;5053336;28;20452;-74
2024/02/21 12:04:27;;;;;;;16.75;13.20;;;9.90;99.90;;;;;;5053231;28;20048;-74
2024/02/21 12:06:54;;;;;;;16.35;13.20;;;9.90;99.90;;;;;;5052192;28;20488;-74
2024/02/21 12:09:22;;;;;;;17.92;13.43;;;9.90;99.90;;;;;;5045884;28;20416;-74
2024/02/21 12:11:57;;;;;;;15.68;13.70;;;9.90;99.90;;;;;;5042698;28;20422;-74
2024/02/21 12:14:25;;;;;;;20.23;13.63;;;9.90;99.90;;;;;;5063309;28;20048;-74
2024/02/21 12:16:51;;;;;;;15.65;13.13;;;9.90;99.90;;;;;;5032747;28;20040;-74
2024/02/21 12:19:17;;;;;;;17.02;13.55;;;9.90;99.90;;;;;;5062258;28;20109;-74
2024/02/21 12:21:43;;;;;;;17.73;14.02;;;9.90;99.90;;;;;;5068347;28;20052;-74
2024/02/21 12:24:27;;;;;;;16.55;12.90;;;9.90;99.90;;;;;;5043391;28;20067;-74
2024/02/21 12:26:54;;;;;;;17.55;13.63;;;9.90;99.90;;;;;;5051252;28;20051;-74
2024/02/21 12:29:26;;;;;;;14.93;12.90;;;9.90;99.90;;;;;;5043050;28;20140;-74
2024/02/21 12:31:54;;;;;;;17.48;13.65;;;10.00;99.90;;;;;;5064612;28;20036;-74
2024/02/21 12:34:22;;;;;;;16.00;12.52;;;10.00;99.90;;;;;;5058707;28;20052;-74
2024/02/21 12:36:47;;;;;;;14.38;11.75;;;10.00;99.90;;;;;;5055344;28;20051;-74
2024/02/21 12:39:13;;;;;;;14.43;11.43;;;10.00;99.90;;;;;;5064925;28;20040;-75